createdAt,value
2022-11-29T00:01:26.487Z,28.98
2022-11-29T00:03:54.727Z,29.42
2022-11-29T00:06:27.282Z,30.10
2022-11-29T00:08:56.392Z,29.52
2022-11-29T00:11:45.767Z,29.02
2022-11-29T00:14:16.624Z,28.92
2022-11-29T00:16:45.301Z,30.50
2022-11-29T00:19:13.578Z,26.77
2022-11-29T00:21:40.863Z,31.05
2022-11-29T00:24:10.002Z,29.73
2022-11-29T00:26:38.071Z,29.63
2022-11-29T00:29:05.776Z,28.27
2022-11-29T00:31:33.944Z,28.67
2022-11-29T00:34:03.409Z,29.02
2022-11-29T00:36:31.212Z,32.35
2022-11-29T00:38:58.868Z,28.30
2022-11-29T00:41:26.580Z,29.80
2022-11-29T00:43:54.121Z,29.10
2022-11-29T00:46:21.700Z,29.50
2022-11-29T00:48:49.332Z,32.00
2022-11-29T00:51:17.226Z,30.58
2022-11-29T00:53:45.048Z,32.33
2022-11-29T00:56:12.347Z,30.23
2022-11-29T00:58:43.367Z,28.50
2022-11-29T01:01:11.817Z,33.08
2022-11-29T01:03:39.873Z,29.52
2022-11-29T01:06:12.958Z,31.50
2022-11-29T01:08:41.101Z,31.00
2022-11-29T01:11:08.387Z,31.65
2022-11-29T01:13:36.511Z,30.65
2022-11-29T01:16:04.963Z,32.00
2022-11-29T01:18:33.623Z,31.55
2022-11-29T01:21:05.576Z,32.78
2022-11-29T01:23:34.407Z,30.17
2022-11-29T01:26:06.255Z,29.92
2022-11-29T01:28:34.882Z,28.58
2022-11-29T01:31:10.846Z,30.63
2022-11-29T01:33:38.491Z,32.55
2022-11-29T01:36:06.542Z,33.88
2022-11-29T01:38:34.471Z,29.67
2022-11-29T01:41:04.017Z,30.10
2022-11-29T01:43:32.425Z,30.55
2022-11-29T01:46:00.232Z,31.38
2022-11-29T01:48:30.866Z,32.00
2022-11-29T01:51:01.007Z,33.60
2022-11-29T01:53:29.056Z,32.58
2022-11-29T01:56:03.637Z,30.17
2022-11-29T01:58:32.365Z,33.15
2022-11-29T02:01:00.959Z,29.95
2022-11-29T02:03:28.683Z,32.75
2022-11-29T02:05:56.231Z,34.53
2022-11-29T02:08:30.023Z,30.60
2022-11-29T02:11:15.587Z,30.13
2022-11-29T02:14:04.238Z,33.17
2022-11-29T02:17:14.952Z,28.58
2022-11-29T02:20:13.583Z,31.83
2022-11-29T02:22:56.340Z,30.50
2022-11-29T02:25:48.616Z,29.92
2022-11-29T02:28:40.256Z,28.75
2022-11-29T02:31:31.112Z,28.60
2022-11-29T02:34:18.575Z,28.92
2022-11-29T02:37:08.575Z,29.67
2022-11-29T02:39:59.207Z,32.85
2022-11-29T02:43:05.767Z,30.58
2022-11-29T02:45:42.266Z,29.05
2022-11-29T02:48:27.795Z,31.98
2022-11-29T02:51:08.330Z,30.95
2022-11-29T02:53:51.400Z,28.13
2022-11-29T02:56:39.007Z,28.70
2022-11-29T02:59:35.068Z,31.48
2022-11-29T03:02:27.402Z,29.20
2022-11-29T03:04:57.958Z,27.30
2022-11-29T03:08:09.623Z,32.75
2022-11-29T03:10:58.779Z,29.13
2022-11-29T03:13:50.467Z,30.55
2022-11-29T03:16:55.477Z,32.00
2022-11-29T03:19:39.261Z,31.77
2022-11-29T03:22:14.994Z,28.05
2022-11-29T03:25:03.398Z,27.90
2022-11-29T03:27:54.799Z,28.67
2022-11-29T03:30:22.741Z,29.02
2022-11-29T03:33:12.921Z,32.30
2022-11-29T03:35:47.695Z,28.35
2022-11-29T03:41:21.129Z,29.95
2022-11-29T03:44:02.419Z,29.17
2022-11-29T03:46:54.228Z,26.60
2022-11-29T03:49:30.911Z,26.13
2022-11-29T03:52:10.227Z,28.10
2022-11-29T03:54:40.755Z,28.40
2022-11-29T03:57:08.371Z,32.53
2022-11-29T04:00:01.471Z,27.42
2022-11-29T04:03:16.655Z,31.90
2022-11-29T04:06:02.149Z,28.02
2022-11-29T04:08:57.104Z,26.70
2022-11-29T04:11:54.835Z,29.80
2022-11-29T04:14:31.087Z,31.95
2022-11-29T04:17:15.395Z,27.88
2022-11-29T04:20:20.255Z,28.15
2022-11-29T04:23:22.683Z,32.25
2022-11-29T04:26:08.692Z,28.63
2022-11-29T04:29:10.784Z,30.88
2022-11-29T04:31:57.535Z,27.98
2022-11-29T04:34:53.543Z,29.15
2022-11-29T04:37:49.362Z,29.25
2022-11-29T04:40:25.768Z,28.42
2022-11-29T04:43:02.200Z,29.98
2022-11-29T04:45:44.372Z,29.33
2022-11-29T04:48:46.808Z,27.55
2022-11-29T04:51:38.550Z,29.20
2022-11-29T04:54:13.770Z,26.08
2022-11-29T04:57:04.215Z,25.25
2022-11-29T04:59:53.381Z,31.38
2022-11-29T05:02:37.102Z,28.52
2022-11-29T05:05:35.513Z,29.90
2022-11-29T05:08:21.247Z,30.20
2022-11-29T05:13:45.300Z,29.58
2022-11-29T05:16:21.617Z,31.05
2022-11-29T05:19:19.431Z,28.80
2022-11-29T05:22:07.935Z,28.17
2022-11-29T05:25:00.894Z,27.77
2022-11-29T05:28:09.787Z,28.10
2022-11-29T05:30:54.510Z,32.60
2022-11-29T05:33:54.229Z,26.80
2022-11-29T05:36:48.416Z,27.95
2022-11-29T05:39:53.220Z,28.83
2022-11-29T05:42:43.223Z,28.35
2022-11-29T05:45:37.088Z,28.15
2022-11-29T05:48:22.104Z,27.23
2022-11-29T05:50:55.002Z,31.92
2022-11-29T05:53:39.964Z,34.22
2022-11-29T05:56:16.391Z,30.45
2022-11-29T05:58:59.856Z,29.10
2022-11-29T06:01:45.671Z,27.55
2022-11-29T06:04:22.092Z,31.77
2022-11-29T06:07:16.730Z,29.10
2022-11-29T06:09:50.780Z,34.50
2022-11-29T06:12:23.761Z,33.90
2022-11-29T06:15:10.510Z,29.40
2022-11-29T06:18:08.389Z,30.65
2022-11-29T06:21:01.878Z,32.40
2022-11-29T06:23:49.330Z,30.80
2022-11-29T06:26:47.318Z,32.28
2022-11-29T06:29:23.803Z,31.23
2022-11-29T06:32:20.589Z,29.38
2022-11-29T06:35:11.533Z,31.45
2022-11-29T06:37:43.717Z,29.50
2022-11-29T06:40:15.948Z,35.20
2022-11-29T06:42:44.143Z,33.10
2022-11-29T06:45:14.311Z,36.13
2022-11-29T06:47:46.336Z,41.08
2022-11-29T06:50:35.260Z,31.45
2022-11-29T06:53:36.975Z,34.97
2022-11-29T06:56:16.473Z,36.50
2022-11-29T06:58:59.171Z,39.60
2022-11-29T07:01:41.784Z,32.42
2022-11-29T07:04:32.563Z,31.88
2022-11-29T07:07:00.007Z,34.42
2022-11-29T07:09:33.416Z,35.08
2022-11-29T07:12:00.912Z,33.38
2022-11-29T07:14:28.704Z,30.88
2022-11-29T07:17:21.016Z,29.42
2022-11-29T07:20:01.204Z,32.83
2022-11-29T07:23:05.256Z,34.75
2022-11-29T07:25:48.108Z,32.78
2022-11-29T07:28:24.335Z,35.53
2022-11-29T07:31:03.885Z,25.67
2022-11-29T07:33:38.525Z,30.50
2022-11-29T07:36:25.843Z,31.40
2022-11-29T07:39:14.948Z,30.42
2022-11-29T07:42:08.394Z,32.75
2022-11-29T07:44:44.898Z,30.90
2022-11-29T07:47:13.440Z,27.52
2022-11-29T07:49:40.715Z,26.20
2022-11-29T07:52:13.304Z,29.17
2022-11-29T07:54:40.746Z,30.02
2022-11-29T07:57:08.447Z,35.50
2022-11-29T07:59:35.722Z,27.25
2022-11-29T08:02:08.770Z,28.70
2022-11-29T08:04:44.406Z,29.52
2022-11-29T08:07:12.316Z,34.97
2022-11-29T08:09:39.693Z,31.92
2022-11-29T08:12:07.434Z,34.05
2022-11-29T08:14:34.676Z,28.20
2022-11-29T08:17:02.270Z,26.75
2022-11-29T08:19:29.528Z,31.70
2022-11-29T08:21:57.160Z,28.08
2022-11-29T08:24:24.423Z,30.20
2022-11-29T08:26:52.581Z,29.33
2022-11-29T08:29:19.956Z,31.10
2022-11-29T08:31:53.291Z,28.58
2022-11-29T08:34:22.357Z,29.25
2022-11-29T08:36:50.985Z,27.77
2022-11-29T08:39:18.357Z,28.08
2022-11-29T08:41:46.172Z,28.48
2022-11-29T08:44:13.416Z,30.40
2022-11-29T08:46:59.829Z,27.30
2022-11-29T08:49:27.141Z,28.02
2022-11-29T08:52:14.596Z,28.63
2022-11-29T08:54:41.843Z,28.48
2022-11-29T08:59:57.350Z,26.42
2022-11-29T09:02:25.032Z,26.90
2022-11-29T09:04:52.490Z,28.75
2022-11-29T09:07:20.925Z,26.17
2022-11-29T09:09:48.447Z,27.83
2022-11-29T09:12:16.828Z,28.25
2022-11-29T09:14:44.320Z,27.58
2022-11-29T09:17:11.987Z,29.88
2022-11-29T09:19:39.331Z,29.02
2022-11-29T09:22:06.897Z,27.02
2022-11-29T09:24:34.256Z,28.33
2022-11-29T09:27:01.913Z,25.00
2022-11-29T09:29:29.232Z,25.80
2022-11-29T09:31:56.793Z,27.05
2022-11-29T09:34:24.387Z,29.50
2022-11-29T09:36:52.080Z,27.55
2022-11-29T09:39:19.343Z,25.85
2022-11-29T09:42:05.492Z,26.55
2022-11-29T09:44:53.337Z,24.33
2022-11-29T09:47:23.812Z,28.25
2022-11-29T09:50:00.973Z,24.73
2022-11-29T09:52:45.863Z,24.95
2022-11-29T09:55:33.009Z,24.83
2022-11-29T09:58:03.744Z,26.25
2022-11-29T10:00:35.476Z,25.95
2022-11-29T10:03:14.210Z,26.52
2022-11-29T10:05:47.430Z,25.05
2022-11-29T10:08:24.133Z,25.13
2022-11-29T10:10:57.402Z,23.33
2022-11-29T10:13:27.081Z,25.20
2022-11-29T10:15:59.703Z,26.77
2022-11-29T10:18:38.439Z,24.52
2022-11-29T10:21:19.347Z,26.30
2022-11-29T10:23:50.841Z,24.92
2022-11-29T10:26:20.647Z,25.75
2022-11-29T10:28:49.298Z,23.35
2022-11-29T10:31:20.945Z,24.42
2022-11-29T10:33:50.173Z,24.58
2022-11-29T10:36:41.735Z,23.75
2022-11-29T10:39:47.614Z,23.10
2022-11-29T10:42:41.857Z,24.58
2022-11-29T10:45:40.343Z,25.75
2022-11-29T10:48:12.532Z,22.23
2022-11-29T10:50:43.898Z,22.80
2022-11-29T10:53:14.828Z,24.08
2022-11-29T10:55:48.604Z,24.55
2022-11-29T10:58:23.413Z,25.38
2022-11-29T11:01:08.876Z,23.30
2022-11-29T11:03:43.947Z,20.83
2022-11-29T11:06:18.750Z,24.98
2022-11-29T11:08:49.794Z,23.58
2022-11-29T11:11:49.929Z,22.40
2022-11-29T11:14:22.649Z,24.83
2022-11-29T11:16:50.773Z,25.77
2022-11-29T11:19:31.031Z,23.50
2022-11-29T11:22:01.882Z,23.75
2022-11-29T11:24:34.444Z,26.80
2022-11-29T11:27:02.440Z,22.95
2022-11-29T11:29:39.710Z,21.73
2022-11-29T11:32:17.809Z,20.70
2022-11-29T11:35:21.916Z,24.60
2022-11-29T11:37:57.488Z,23.65
2022-11-29T11:40:28.899Z,22.83
2022-11-29T11:42:59.354Z,22.02
2022-11-29T11:45:32.660Z,21.98
2022-11-29T11:48:05.376Z,22.25
2022-11-29T11:50:54.008Z,21.05
2022-11-29T11:53:36.846Z,22.38
2022-11-29T11:56:13.455Z,22.70
2022-11-29T11:58:54.119Z,21.33
2022-11-29T12:01:35.858Z,22.92
2022-11-29T12:04:14.926Z,20.98
2022-11-29T12:06:44.889Z,22.35
2022-11-29T12:09:46.160Z,22.00
2022-11-29T12:12:17.864Z,21.67
2022-11-29T12:14:53.740Z,24.02
2022-11-29T12:17:35.938Z,22.05
2022-11-29T12:20:04.464Z,23.83
2022-11-29T12:22:45.269Z,21.10
2022-11-29T12:25:26.152Z,23.30
2022-11-29T12:27:53.355Z,22.00
2022-11-29T12:30:21.335Z,20.77
2022-11-29T12:33:04.106Z,20.73
2022-11-29T12:35:42.585Z,23.25
2022-11-29T12:38:22.535Z,20.23
2022-11-29T12:41:34.527Z,21.00
2022-11-29T12:44:35.600Z,22.13
2022-11-29T12:47:41.625Z,19.45
2022-11-29T12:50:29.737Z,20.48
2022-11-29T12:53:15.845Z,19.88
2022-11-29T12:58:39.035Z,20.70
2022-11-29T13:01:17.674Z,19.77
2022-11-29T13:04:37.148Z,20.38
2022-11-29T13:07:25.393Z,21.05
2022-11-29T13:10:30.487Z,19.58
2022-11-29T13:13:23.004Z,20.73
2022-11-29T13:16:20.649Z,19.67
2022-11-29T13:19:02.873Z,20.02
2022-11-29T13:21:40.042Z,19.70
2022-11-29T13:24:13.632Z,17.95
2022-11-29T13:26:41.993Z,18.30
2022-11-29T13:29:15.730Z,19.20
2022-11-29T13:31:45.517Z,19.50
2022-11-29T13:34:28.885Z,19.88
2022-11-29T13:37:05.238Z,18.75
2022-11-29T13:39:50.827Z,18.95
2022-11-29T13:42:45.949Z,19.73
2022-11-29T13:45:22.648Z,16.88
2022-11-29T13:47:53.212Z,18.52
2022-11-29T13:50:44.648Z,19.52
2022-11-29T13:53:42.838Z,18.05
2022-11-29T13:56:32.023Z,19.33
2022-11-29T13:59:01.195Z,18.83
2022-11-29T14:01:28.898Z,17.67
2022-11-29T14:04:14.624Z,21.02
2022-11-29T14:06:42.028Z,20.60
2022-11-29T14:09:29.012Z,16.73
2022-11-29T14:12:03.795Z,19.90
2022-11-29T14:14:49.003Z,18.35
2022-11-29T14:17:47.513Z,16.83
2022-11-29T14:20:28.451Z,20.25
2022-11-29T14:23:05.127Z,17.98
2022-11-29T14:25:55.245Z,16.48
2022-11-29T14:28:35.334Z,19.33
2022-11-29T14:31:04.752Z,17.83
2022-11-29T14:33:55.200Z,21.73
2022-11-29T14:36:25.851Z,18.40
2022-11-29T14:39:22.601Z,17.63
2022-11-29T14:42:16.900Z,20.17
2022-11-29T14:44:59.788Z,20.42
2022-11-29T14:47:47.127Z,23.45
2022-11-29T14:50:29.779Z,21.80
2022-11-29T14:52:58.128Z,22.10
2022-11-29T14:55:25.341Z,23.15
2022-11-29T14:58:05.916Z,24.50
2022-11-29T15:00:39.520Z,24.85
2022-11-29T15:03:21.187Z,24.35
2022-11-29T15:06:15.853Z,23.77
2022-11-29T15:09:00.803Z,26.77
2022-11-29T15:11:46.638Z,27.98
2022-11-29T15:14:26.664Z,25.05
2022-11-29T15:17:02.690Z,30.75
2022-11-29T15:19:49.054Z,28.10
2022-11-29T15:22:22.387Z,23.83
2022-11-29T15:24:59.593Z,23.85
2022-11-29T15:27:27.155Z,24.65
2022-11-29T15:29:54.986Z,26.83
2022-11-29T15:32:27.297Z,24.17
2022-11-29T15:34:56.325Z,24.80
2022-11-29T15:37:32.606Z,23.80
2022-11-29T15:40:31.318Z,22.00
2022-11-29T15:43:20.087Z,23.63
2022-11-29T15:45:51.164Z,22.50
2022-11-29T15:48:24.616Z,27.45
2022-11-29T15:50:52.104Z,22.65
2022-11-29T15:53:25.613Z,23.60
2022-11-29T15:55:57.615Z,23.85
2022-11-29T15:58:29.268Z,24.10
2022-11-29T16:00:59.721Z,23.42
2022-11-29T16:03:32.311Z,23.55
2022-11-29T16:06:24.472Z,24.85
2022-11-29T16:08:52.277Z,23.48
2022-11-29T16:11:24.244Z,25.83
2022-11-29T16:14:03.429Z,24.92
2022-11-29T16:16:34.082Z,28.23
2022-11-29T16:19:10.469Z,22.40
2022-11-29T16:21:38.261Z,25.23
2022-11-29T16:24:14.345Z,28.30
2022-11-29T16:26:45.163Z,28.27
2022-11-29T16:29:24.425Z,25.45
2022-11-29T16:31:52.675Z,28.67
2022-11-29T16:34:28.029Z,31.95
2022-11-29T16:37:07.493Z,28.75
2022-11-29T16:39:38.343Z,33.35
2022-11-29T16:42:13.929Z,24.45
2022-11-29T16:44:41.376Z,29.35
2022-11-29T16:47:18.508Z,29.17
2022-11-29T16:50:05.787Z,26.13
2022-11-29T16:52:34.388Z,30.17
2022-11-29T16:55:01.892Z,28.73
2022-11-29T16:57:30.506Z,29.33
2022-11-29T16:59:58.081Z,25.15
2022-11-29T17:02:28.913Z,26.80
2022-11-29T17:04:58.070Z,30.10
2022-11-29T17:07:29.374Z,28.58
2022-11-29T17:09:57.169Z,28.00
2022-11-29T17:12:24.872Z,28.40
2022-11-29T17:14:52.223Z,31.48
2022-11-29T17:17:19.897Z,27.20
2022-11-29T17:19:48.263Z,27.10
2022-11-29T17:22:16.057Z,26.38
2022-11-29T17:24:48.093Z,29.23
2022-11-29T17:27:16.241Z,29.88
2022-11-29T17:29:43.447Z,29.27
2022-11-29T17:32:11.033Z,29.77
2022-11-29T17:34:38.335Z,30.50
2022-11-29T17:37:05.925Z,26.45
2022-11-29T17:39:33.397Z,28.17
2022-11-29T17:42:01.037Z,25.83
2022-11-29T17:44:28.330Z,36.63
2022-11-29T17:46:55.892Z,27.75
2022-11-29T17:49:23.106Z,29.75
2022-11-29T17:51:52.700Z,28.30
2022-11-29T17:54:24.133Z,27.08
2022-11-29T17:56:51.867Z,27.83
2022-11-29T17:59:19.380Z,28.52
2022-11-29T18:01:47.629Z,28.92
2022-11-29T18:04:15.407Z,28.80
2022-11-29T18:06:43.697Z,30.30
2022-11-29T18:09:11.562Z,28.38
2022-11-29T18:11:48.230Z,35.00
2022-11-29T18:14:20.116Z,28.15
2022-11-29T18:16:48.436Z,30.27
2022-11-29T18:19:18.687Z,29.75
2022-11-29T18:21:46.788Z,30.90
2022-11-29T18:24:14.226Z,29.95
2022-11-29T18:26:42.425Z,26.02
2022-11-29T18:29:11.049Z,28.70
2022-11-29T18:31:43.524Z,28.27
2022-11-29T18:34:13.082Z,32.28
2022-11-29T18:36:48.584Z,30.92
2022-11-29T18:39:18.372Z,30.75
2022-11-29T18:41:51.704Z,30.63
2022-11-29T18:44:21.369Z,29.60
2022-11-29T18:46:49.173Z,28.48
2022-11-29T18:49:18.027Z,30.33
2022-11-29T18:51:47.444Z,30.42
2022-11-29T18:54:16.233Z,29.45
2022-11-29T18:56:45.225Z,28.83
2022-11-29T18:59:17.745Z,36.67
2022-11-29T19:01:48.074Z,33.47
2022-11-29T19:04:18.391Z,33.00
2022-11-29T19:06:46.493Z,37.38
2022-11-29T19:09:16.674Z,31.27
2022-11-29T19:11:44.295Z,30.95
2022-11-29T19:14:12.685Z,32.58
2022-11-29T19:16:44.004Z,30.52
2022-11-29T19:19:12.462Z,37.45
2022-11-29T19:21:40.738Z,32.58
2022-11-29T19:24:15.230Z,35.78
2022-11-29T19:26:45.390Z,32.95
2022-11-29T19:29:13.821Z,38.20
2022-11-29T19:31:42.445Z,39.72
2022-11-29T19:34:10.452Z,39.13
2022-11-29T19:36:42.824Z,39.55
2022-11-29T19:39:13.402Z,39.55
2022-11-29T19:41:42.991Z,42.85
2022-11-29T19:44:11.429Z,41.45
2022-11-29T19:46:44.200Z,43.15
2022-11-29T19:49:11.848Z,43.85
2022-11-29T19:51:39.842Z,46.03
2022-11-29T19:54:08.595Z,42.00
2022-11-29T19:56:36.716Z,41.70
2022-11-29T19:59:05.527Z,43.42
2022-11-29T20:01:40.856Z,44.05
2022-11-29T20:04:09.972Z,45.95
2022-11-29T20:06:38.484Z,43.40
2022-11-29T20:09:06.413Z,46.60
2022-11-29T20:11:34.073Z,50.47
2022-11-29T20:14:02.904Z,54.83
2022-11-29T20:16:32.292Z,45.65
2022-11-29T20:18:59.818Z,51.80
2022-11-29T20:21:32.695Z,49.50
2022-11-29T20:24:02.628Z,51.03
2022-11-29T20:26:32.212Z,45.28
2022-11-29T20:29:01.713Z,52.50
2022-11-29T20:31:30.190Z,50.78
2022-11-29T20:33:57.654Z,50.80
2022-11-29T20:36:37.856Z,55.03
2022-11-29T20:39:59.632Z,49.70
2022-11-29T20:42:43.881Z,52.78
2022-11-29T20:45:12.728Z,58.53
2022-11-29T20:47:49.199Z,53.10
2022-11-29T20:50:23.723Z,53.35
2022-11-29T20:53:13.484Z,49.65
2022-11-29T20:55:46.447Z,52.72
2022-11-29T20:58:16.824Z,50.35
2022-11-29T21:00:44.190Z,51.45
2022-11-29T21:03:15.973Z,49.25
2022-11-29T21:05:43.751Z,51.80
2022-11-29T21:08:11.676Z,53.25
2022-11-29T21:10:39.196Z,56.28
2022-11-29T21:13:06.936Z,54.13
2022-11-29T21:15:34.609Z,53.85
2022-11-29T21:18:02.453Z,55.05
2022-11-29T21:20:30.412Z,52.58
2022-11-29T21:23:20.295Z,57.08
2022-11-29T21:26:02.467Z,51.97
2022-11-29T21:28:39.582Z,50.83
2022-11-29T21:31:12.045Z,52.72
2022-11-29T21:33:40.009Z,48.78
2022-11-29T21:36:09.562Z,47.97
2022-11-29T21:38:37.461Z,47.13
2022-11-29T21:41:04.942Z,46.60
2022-11-29T21:44:04.513Z,45.60
2022-11-29T21:46:20.298Z,47.67
2022-11-29T21:48:49.923Z,46.60
2022-11-29T21:51:17.207Z,47.67
2022-11-29T21:53:45.315Z,44.60
2022-11-29T21:56:12.904Z,40.88
2022-11-29T21:58:40.551Z,40.08
2022-11-29T22:01:17.044Z,47.28
2022-11-29T22:03:44.789Z,45.70
2022-11-29T22:06:16.205Z,45.63
2022-11-29T22:08:43.768Z,41.65
2022-11-29T22:11:16.947Z,42.72
2022-11-29T22:14:03.261Z,49.42
2022-11-29T22:16:30.639Z,42.13
2022-11-29T22:18:58.228Z,44.85
2022-11-29T22:21:25.519Z,38.97
2022-11-29T22:23:53.311Z,39.33
2022-11-29T22:26:20.732Z,39.03
2022-11-29T22:28:48.294Z,41.00
2022-11-29T22:31:15.700Z,38.83
2022-11-29T22:33:43.363Z,41.42
2022-11-29T22:36:13.021Z,39.83
2022-11-29T22:38:40.680Z,39.95
2022-11-29T22:41:13.390Z,40.97
2022-11-29T22:43:42.724Z,41.95
2022-11-29T22:46:16.668Z,37.85
2022-11-29T22:48:46.107Z,37.67
2022-11-29T22:51:16.297Z,38.20
2022-11-29T22:53:51.100Z,36.28
2022-11-29T22:56:19.427Z,37.15
2022-11-29T22:58:47.100Z,40.97
2022-11-29T23:01:19.861Z,40.83
2022-11-29T23:03:53.795Z,41.90
2022-11-29T23:06:27.066Z,40.92
2022-11-29T23:08:57.492Z,37.97
2022-11-29T23:11:28.641Z,40.90
2022-11-29T23:13:56.663Z,36.33
2022-11-29T23:16:26.559Z,38.63
2022-11-29T23:18:55.741Z,36.60
2022-11-29T23:21:31.520Z,35.03
2022-11-29T23:24:03.029Z,37.70
2022-11-29T23:26:37.410Z,34.92
2022-11-29T23:29:07.780Z,34.85
2022-11-29T23:31:35.143Z,36.22
2022-11-29T23:34:03.612Z,35.40
2022-11-29T23:36:30.956Z,33.72
2022-11-29T23:38:58.635Z,33.55
2022-11-29T23:41:25.911Z,37.10
2022-11-29T23:43:53.541Z,36.63
2022-11-29T23:46:23.504Z,36.40
2022-11-29T23:48:51.983Z,35.08
2022-11-29T23:51:20.096Z,35.17
2022-11-29T23:53:54.400Z,34.20
2022-11-29T23:56:22.539Z,39.13
2022-11-29T23:58:50.164Z,35.63
